createdAt,value
2019-01-16T00:01:46.478Z,87.77
2019-01-16T00:04:32.371Z,87.73
2019-01-16T00:07:21.327Z,87.81
2019-01-16T00:10:23.109Z,87.86
2019-01-16T00:13:12.072Z,87.85
2019-01-16T00:16:14.670Z,87.84
2019-01-16T00:19:06.313Z,87.92
2019-01-16T00:22:07.999Z,87.95
2019-01-16T00:25:06.741Z,87.94
2019-01-16T00:28:05.741Z,88.08
2019-01-16T00:30:50.707Z,88.06
2019-01-16T00:33:45.716Z,88.22
2019-01-16T00:36:37.045Z,88.24
2019-01-16T00:39:33.535Z,88.28
2019-01-16T00:42:12.982Z,88.26
2019-01-16T00:45:07.377Z,88.16
2019-01-16T00:48:10.992Z,88.12
2019-01-16T00:50:52.509Z,88.72
2019-01-16T00:53:29.053Z,89.23
2019-01-16T00:56:16.375Z,89.34
2019-01-16T00:59:08.061Z,89.63
2019-01-16T01:01:57.369Z,89.74
2019-01-16T01:04:46.024Z,89.89
2019-01-16T01:07:41.951Z,89.91
2019-01-16T01:10:29.689Z,89.80
2019-01-16T01:13:12.520Z,89.86
2019-01-16T01:16:06.916Z,89.85
2019-01-16T01:19:01.518Z,89.54
2019-01-16T01:21:49.369Z,89.38
2019-01-16T01:24:48.372Z,89.39
2019-01-16T01:27:42.985Z,89.36
2019-01-16T01:30:32.868Z,89.05
2019-01-16T01:33:20.409Z,89.02
2019-01-16T01:36:10.295Z,88.88
2019-01-16T01:38:59.366Z,88.72
2019-01-16T01:41:49.254Z,88.72
2019-01-16T01:44:37.613Z,88.77
2019-01-16T01:47:31.494Z,88.55
2019-01-16T01:50:38.999Z,88.67
2019-01-16T01:53:31.572Z,88.53
2019-01-16T01:56:23.430Z,88.33
2019-01-16T01:59:15.863Z,88.46
2019-01-16T02:02:03.595Z,89.21
2019-01-16T02:04:51.742Z,89.80
2019-01-16T02:07:59.445Z,90.33
2019-01-16T02:10:47.999Z,90.82
2019-01-16T02:13:36.655Z,91.54
2019-01-16T02:16:20.089Z,91.87
2019-01-16T02:19:14.683Z,92.35
2019-01-16T02:22:10.412Z,92.57
2019-01-16T02:25:05.517Z,93.08
2019-01-16T02:27:54.793Z,93.49
2019-01-16T02:30:44.266Z,93.94
2019-01-16T02:33:39.583Z,94.30
2019-01-16T02:36:36.960Z,94.53
2019-01-16T02:39:19.886Z,94.67
2019-01-16T02:42:09.272Z,94.64
2019-01-16T02:44:57.566Z,94.56
2019-01-16T02:47:45.109Z,94.55
2019-01-16T02:50:40.446Z,94.27
2019-01-16T02:53:32.496Z,94.20
2019-01-16T02:56:24.542Z,94.36
2019-01-16T02:59:22.933Z,94.27
2019-01-16T03:02:12.218Z,94.08
2019-01-16T03:05:19.714Z,93.72
2019-01-16T03:08:12.272Z,93.42
2019-01-16T03:11:15.983Z,93.20
2019-01-16T03:14:07.206Z,92.96
2019-01-16T03:17:05.691Z,92.57
2019-01-16T03:19:47.113Z,92.39
2019-01-16T03:22:42.274Z,92.06
2019-01-16T03:25:23.158Z,91.84
2019-01-16T03:28:10.475Z,91.67
2019-01-16T03:30:55.855Z,91.63
2019-01-16T03:33:44.726Z,91.62
2019-01-16T03:36:33.388Z,91.51
2019-01-16T03:39:13.561Z,91.48
2019-01-16T03:42:08.875Z,91.43
2019-01-16T03:45:06.771Z,91.15
2019-01-16T03:48:09.666Z,91.02
2019-01-16T03:51:08.853Z,90.95
2019-01-16T03:53:50.237Z,90.83
2019-01-16T03:56:41.554Z,90.59
2019-01-16T03:59:29.288Z,90.64
2019-01-16T04:02:25.417Z,90.51
2019-01-16T04:05:27.090Z,90.51
2019-01-16T04:08:22.103Z,90.39
2019-01-16T04:11:09.856Z,90.46
2019-01-16T04:14:10.400Z,90.43
2019-01-16T04:16:58.747Z,90.44
2019-01-16T04:19:43.207Z,90.38
2019-01-16T04:22:46.918Z,90.37
2019-01-16T04:25:39.062Z,90.36
2019-01-16T04:28:32.585Z,90.16
2019-01-16T04:31:22.458Z,90.12
2019-01-16T04:34:15.495Z,90.10
2019-01-16T04:37:03.028Z,90.09
2019-01-16T04:39:48.111Z,89.99
2019-01-16T04:42:36.774Z,89.96
2019-01-16T04:45:44.372Z,89.82
2019-01-16T04:48:26.473Z,89.94
2019-01-16T04:51:15.021Z,89.92
2019-01-16T04:54:10.141Z,90.03
2019-01-16T04:56:57.994Z,89.98
2019-01-16T04:59:58.267Z,89.93
2019-01-16T05:02:46.613Z,90.04
2019-01-16T05:05:35.730Z,89.88
2019-01-16T05:08:27.385Z,89.87
2019-01-16T05:11:13.907Z,89.92
2019-01-16T05:13:56.676Z,89.65
2019-01-16T05:16:50.706Z,89.86
2019-01-16T05:19:42.857Z,90.02
2019-01-16T05:22:22.818Z,90.29
2019-01-16T05:25:29.917Z,90.42
2019-01-16T05:28:21.226Z,90.45
2019-01-16T05:31:11.826Z,90.34
2019-01-16T05:34:14.363Z,90.63
2019-01-16T05:37:05.066Z,90.73
2019-01-16T05:40:08.411Z,90.90
2019-01-16T05:42:56.974Z,91.10
2019-01-16T05:45:49.532Z,91.38
2019-01-16T05:48:51.124Z,91.60
2019-01-16T05:51:43.947Z,91.87
2019-01-16T05:54:32.299Z,92.25
2019-01-16T05:57:19.931Z,92.82
2019-01-16T06:00:01.268Z,93.33
2019-01-16T06:02:48.357Z,93.60
2019-01-16T06:05:36.108Z,93.84
2019-01-16T06:08:23.240Z,94.04
2019-01-16T06:11:26.560Z,93.97
2019-01-16T06:14:10.047Z,93.85
2019-01-16T06:16:58.112Z,93.59
2019-01-16T06:19:54.001Z,93.47
2019-01-16T06:22:31.946Z,93.30
2019-01-16T06:25:13.231Z,93.00
2019-01-16T06:28:17.657Z,92.79
2019-01-16T06:31:25.155Z,92.59
2019-01-16T06:34:26.581Z,92.54
2019-01-16T06:37:18.566Z,92.56
2019-01-16T06:40:02.818Z,92.55
2019-01-16T06:42:55.047Z,92.54
2019-01-16T06:45:43.567Z,92.25
2019-01-16T06:48:34.734Z,92.02
2019-01-16T06:51:25.064Z,91.76
2019-01-16T06:54:07.917Z,91.63
2019-01-16T06:56:57.538Z,91.78
2019-01-16T06:59:39.309Z,92.02
2019-01-16T07:02:51.695Z,91.77
2019-01-16T07:06:08.489Z,91.58
2019-01-16T07:09:04.090Z,91.02
2019-01-16T07:11:52.204Z,90.42
2019-01-16T07:14:48.729Z,89.97
2019-01-16T07:17:53.668Z,89.49
2019-01-16T07:21:00.914Z,89.18
2019-01-16T07:24:08.020Z,88.68
2019-01-16T07:27:06.098Z,88.35
2019-01-16T07:30:00.386Z,88.11
2019-01-16T07:33:01.651Z,87.73
2019-01-16T07:36:02.825Z,87.38
2019-01-16T07:38:58.426Z,87.10
2019-01-16T07:41:45.432Z,86.54
2019-01-16T07:44:33.013Z,86.25
2019-01-16T07:47:31.004Z,86.31
2019-01-16T07:50:18.874Z,85.92
2019-01-16T07:53:08.254Z,85.48
2019-01-16T07:55:55.427Z,85.20
2019-01-16T07:58:46.839Z,85.20
2019-01-16T08:01:36.555Z,84.76
2019-01-16T08:04:31.646Z,84.85
2019-01-16T08:07:23.374Z,84.55
2019-01-16T08:10:30.157Z,84.19
2019-01-16T08:13:19.700Z,83.98
2019-01-16T08:16:06.989Z,84.06
2019-01-16T08:18:57.277Z,84.02
2019-01-16T08:21:46.992Z,84.06
2019-01-16T08:24:36.882Z,84.13
2019-01-16T08:27:40.801Z,84.28
2019-01-16T08:30:32.436Z,83.78
2019-01-16T08:33:21.100Z,83.73
2019-01-16T08:36:09.658Z,83.86
2019-01-16T08:39:05.187Z,83.80
2019-01-16T08:41:54.467Z,83.52
2019-01-16T08:44:54.089Z,83.37
2019-01-16T08:47:52.381Z,83.14
2019-01-16T08:50:44.831Z,82.99
2019-01-16T08:53:40.555Z,82.89
2019-01-16T08:56:40.574Z,82.73
2019-01-16T08:59:29.900Z,82.57
2019-01-16T09:02:18.505Z,82.32
2019-01-16T09:05:07.571Z,82.02
2019-01-16T09:07:54.382Z,81.90
2019-01-16T09:10:52.704Z,81.90
2019-01-16T09:13:34.770Z,82.26
2019-01-16T09:16:38.602Z,82.19
2019-01-16T09:19:16.281Z,82.11
2019-01-16T09:22:04.059Z,82.00
2019-01-16T09:25:01.936Z,81.71
2019-01-16T09:27:52.023Z,81.45
2019-01-16T09:30:39.998Z,81.24
2019-01-16T09:33:26.981Z,80.95
2019-01-16T09:36:22.906Z,80.47
2019-01-16T09:39:12.694Z,80.84
2019-01-16T09:41:58.183Z,80.74
2019-01-16T09:44:53.091Z,80.84
2019-01-16T09:47:35.291Z,80.60
2019-01-16T09:50:33.780Z,79.92
2019-01-16T09:53:38.103Z,79.72
2019-01-16T09:56:25.530Z,79.71
2019-01-16T09:59:32.423Z,79.43
2019-01-16T10:02:30.394Z,79.61
2019-01-16T10:05:12.021Z,79.31
2019-01-16T10:08:01.887Z,78.73
2019-01-16T10:10:49.844Z,79.11
2019-01-16T10:13:31.674Z,79.37
2019-01-16T10:16:18.506Z,79.19
2019-01-16T10:19:01.158Z,79.38
2019-01-16T10:21:48.798Z,79.29
2019-01-16T10:24:29.756Z,79.36
2019-01-16T10:27:16.521Z,79.18
2019-01-16T10:30:08.318Z,79.17
2019-01-16T10:32:55.069Z,79.82
2019-01-16T10:35:47.226Z,79.18
2019-01-16T10:38:43.300Z,79.69
2019-01-16T10:41:31.865Z,79.08
2019-01-16T10:44:29.437Z,79.26
2019-01-16T10:47:28.246Z,79.01
2019-01-16T10:50:20.199Z,79.48
2019-01-16T10:53:08.897Z,79.29
2019-01-16T10:56:00.729Z,79.45
2019-01-16T11:01:40.320Z,79.59
2019-01-16T11:04:29.911Z,79.54
2019-01-16T11:07:11.650Z,79.55
2019-01-16T11:10:03.866Z,78.97
2019-01-16T11:12:45.356Z,78.96
2019-01-16T11:15:34.439Z,78.54
2019-01-16T11:18:22.795Z,78.36
2019-01-16T11:21:14.937Z,78.55
2019-01-16T11:24:01.568Z,78.42
2019-01-16T11:26:41.622Z,78.64
2019-01-16T11:29:29.508Z,78.85
2019-01-16T11:32:30.588Z,78.83
2019-01-16T11:35:25.968Z,79.35
2019-01-16T11:38:30.269Z,79.20
2019-01-16T11:41:22.769Z,78.63
2019-01-16T11:44:04.857Z,78.65
2019-01-16T11:46:41.566Z,78.65
2019-01-16T11:49:30.632Z,78.68
2019-01-16T11:52:16.596Z,78.94
2019-01-16T11:55:08.552Z,78.45
2019-01-16T11:57:55.331Z,78.41
2019-01-16T12:00:35.555Z,78.39
2019-01-16T12:03:24.121Z,78.47
2019-01-16T12:06:22.722Z,78.34
2019-01-16T12:09:14.320Z,78.12
2019-01-16T12:12:06.752Z,78.05
2019-01-16T12:14:53.967Z,77.37
2019-01-16T12:17:38.231Z,77.67
2019-01-16T12:20:25.611Z,77.91
2019-01-16T12:23:22.725Z,78.19
2019-01-16T12:26:18.528Z,77.24
2019-01-16T12:29:01.512Z,77.55
2019-01-16T12:31:52.904Z,77.23
2019-01-16T12:34:41.013Z,77.71
2019-01-16T12:37:20.674Z,77.66
2019-01-16T12:39:58.509Z,77.85
2019-01-16T12:42:45.876Z,77.24
2019-01-16T12:45:34.998Z,77.36
2019-01-16T12:48:25.881Z,77.67
2019-01-16T12:51:23.093Z,78.12
2019-01-16T12:54:23.641Z,77.83
2019-01-16T12:57:11.503Z,78.27
2019-01-16T13:00:00.271Z,78.14
2019-01-16T13:02:57.443Z,77.37
2019-01-16T13:05:56.928Z,77.56
2019-01-16T13:08:40.416Z,77.51
2019-01-16T13:11:37.398Z,77.84
2019-01-16T13:14:30.025Z,77.19
2019-01-16T13:17:26.761Z,76.63
2019-01-16T13:20:18.353Z,76.62
2019-01-16T13:23:19.165Z,76.70
2019-01-16T13:26:09.844Z,76.37
2019-01-16T13:29:16.687Z,76.53
2019-01-16T13:31:57.722Z,76.54
2019-01-16T13:34:37.852Z,76.71
2019-01-16T13:37:27.096Z,76.29
2019-01-16T13:40:18.976Z,76.61
2019-01-16T13:43:07.998Z,75.98
2019-01-16T13:45:59.382Z,76.17
2019-01-16T13:48:38.987Z,76.00
2019-01-16T13:51:34.058Z,76.32
2019-01-16T13:54:23.189Z,75.39
2019-01-16T13:57:10.680Z,75.51
2019-01-16T14:00:02.583Z,75.64
2019-01-16T14:02:51.715Z,75.57
2019-01-16T14:05:39.509Z,75.99
2019-01-16T14:08:30.805Z,76.47
2019-01-16T14:11:29.702Z,76.29
2019-01-16T14:14:36.614Z,76.21
2019-01-16T14:17:17.357Z,76.10
2019-01-16T14:20:05.454Z,76.10
2019-01-16T14:23:03.493Z,76.19
2019-01-16T14:25:51.424Z,76.29
2019-01-16T14:28:57.868Z,75.98
2019-01-16T14:31:55.876Z,75.94
2019-01-16T14:34:58.254Z,76.47
2019-01-16T14:37:47.879Z,76.30
2019-01-16T14:40:35.564Z,76.42
2019-01-16T14:43:23.158Z,76.52
2019-01-16T14:46:27.249Z,76.72
2019-01-16T14:49:14.534Z,76.69
2019-01-16T14:52:06.769Z,76.72
2019-01-16T14:55:05.819Z,77.15
2019-01-16T14:57:48.688Z,77.10
2019-01-16T15:00:36.094Z,77.10
2019-01-16T15:03:25.001Z,77.19
2019-01-16T15:06:19.876Z,77.67
2019-01-16T15:09:07.164Z,77.63
2019-01-16T15:11:54.342Z,77.87
2019-01-16T15:15:00.812Z,77.95
2019-01-16T15:17:54.949Z,77.22
2019-01-16T15:20:44.683Z,77.51
2019-01-16T15:23:40.374Z,77.90
2019-01-16T15:26:26.119Z,77.77
2019-01-16T15:29:11.103Z,78.32
2019-01-16T15:32:07.047Z,78.28
2019-01-16T15:35:02.220Z,78.26
2019-01-16T15:38:00.985Z,78.52
2019-01-16T15:41:08.147Z,78.97
2019-01-16T15:44:07.522Z,78.40
2019-01-16T15:46:50.194Z,78.33
2019-01-16T15:49:47.321Z,78.23
2019-01-16T15:52:44.784Z,77.91
2019-01-16T15:55:32.030Z,78.31
2019-01-16T15:58:33.556Z,78.58
2019-01-16T16:01:16.128Z,78.81
2019-01-16T16:04:07.224Z,78.51
2019-01-16T16:07:08.240Z,78.83
2019-01-16T16:10:15.011Z,78.86
2019-01-16T16:13:21.729Z,78.77
2019-01-16T16:16:10.447Z,78.72
2019-01-16T16:18:58.245Z,78.74
2019-01-16T16:22:00.157Z,78.88
2019-01-16T16:25:01.102Z,79.00
2019-01-16T16:27:54.876Z,79.23
2019-01-16T16:30:39.020Z,79.19
2019-01-16T16:33:30.644Z,78.89
2019-01-16T16:36:13.014Z,79.04
2019-01-16T16:39:02.141Z,79.13
2019-01-16T16:41:44.843Z,79.24
2019-01-16T16:44:34.461Z,79.27
2019-01-16T16:47:23.507Z,78.95
2019-01-16T16:50:05.656Z,79.22
2019-01-16T16:52:52.954Z,79.19
2019-01-16T16:55:50.792Z,79.57
2019-01-16T16:58:54.533Z,79.70
2019-01-16T17:01:52.733Z,79.61
2019-01-16T17:04:44.027Z,79.63
2019-01-16T17:07:31.150Z,79.49
2019-01-16T17:10:35.916Z,79.43
2019-01-16T17:13:22.904Z,79.39
2019-01-16T17:16:20.751Z,79.54
2019-01-16T17:19:13.494Z,79.36
2019-01-16T17:22:11.066Z,79.46
2019-01-16T17:24:59.137Z,79.46
2019-01-16T17:27:46.213Z,79.34
2019-01-16T17:30:36.265Z,79.28
2019-01-16T17:33:33.700Z,79.64
2019-01-16T17:36:22.432Z,79.53
2019-01-16T17:39:13.820Z,79.34
2019-01-16T17:42:08.492Z,79.88
2019-01-16T17:45:01.213Z,79.79
2019-01-16T17:47:44.419Z,80.01
2019-01-16T17:50:39.518Z,80.25
2019-01-16T17:53:27.909Z,80.07
2019-01-16T17:56:19.404Z,80.19
2019-01-16T17:59:11.503Z,80.06
2019-01-16T18:01:55.416Z,80.43
2019-01-16T18:04:50.700Z,80.14
2019-01-16T18:07:37.689Z,80.39
2019-01-16T18:10:31.122Z,80.34
2019-01-16T18:13:18.413Z,80.24
2019-01-16T18:16:08.574Z,79.79
2019-01-16T18:19:00.476Z,79.90
2019-01-16T18:22:06.420Z,79.58
2019-01-16T18:24:53.300Z,79.36
2019-01-16T18:27:42.132Z,79.14
2019-01-16T18:30:43.772Z,79.33
2019-01-16T18:33:32.906Z,79.36
2019-01-16T18:36:27.473Z,79.26
2019-01-16T18:39:31.880Z,79.28
2019-01-16T18:42:19.679Z,79.09
2019-01-16T18:45:02.767Z,79.45
2019-01-16T18:48:05.532Z,79.43
2019-01-16T18:51:09.939Z,79.23
2019-01-16T18:54:01.842Z,79.33
2019-01-16T18:56:51.179Z,79.29
2019-01-16T18:59:38.576Z,79.61
2019-01-16T19:02:27.725Z,79.36
2019-01-16T19:05:28.945Z,79.42
2019-01-16T19:08:21.769Z,79.22
2019-01-16T19:11:29.679Z,79.31
2019-01-16T19:14:25.186Z,79.17
2019-01-16T19:17:25.989Z,78.89
2019-01-16T19:20:15.198Z,79.00
2019-01-16T19:23:19.704Z,79.41
2019-01-16T19:26:09.974Z,79.32
2019-01-16T19:28:56.314Z,79.22
2019-01-16T19:31:43.420Z,78.89
2019-01-16T19:34:53.956Z,79.21
2019-01-16T19:42:04.709Z,78.93
2019-01-16T19:44:53.079Z,78.97
2019-01-16T19:47:32.397Z,78.22
2019-01-16T19:50:21.135Z,78.64
2019-01-16T19:53:17.087Z,78.80
2019-01-16T19:56:09.087Z,78.06
2019-01-16T19:58:55.966Z,78.03
2019-01-16T20:01:42.960Z,78.45
2019-01-16T20:04:58.611Z,78.05
2019-01-16T20:07:54.431Z,78.07
2019-01-16T20:10:43.981Z,77.98
2019-01-16T20:13:36.569Z,78.09
2019-01-16T20:16:40.145Z,78.05
2019-01-16T20:19:48.168Z,77.79
2019-01-16T20:22:36.161Z,77.79
2019-01-16T20:25:42.119Z,77.75
2019-01-16T20:28:20.870Z,77.39
2019-01-16T20:31:10.007Z,77.32
2019-01-16T20:33:57.815Z,77.07
2019-01-16T20:36:53.022Z,76.79
2019-01-16T20:39:41.820Z,76.11
2019-01-16T20:42:37.515Z,74.80
2019-01-16T20:45:25.114Z,74.92
2019-01-16T20:48:13.231Z,75.20
2019-01-16T20:51:06.574Z,74.89
2019-01-16T20:53:59.909Z,75.00
2019-01-16T20:56:47.537Z,75.63
2019-01-16T20:59:29.578Z,74.50
2019-01-16T21:02:23.936Z,74.67
2019-01-16T21:05:11.955Z,74.81
2019-01-16T21:08:09.690Z,75.06
2019-01-16T21:11:05.172Z,74.98
2019-01-16T21:14:06.616Z,74.88
2019-01-16T21:16:56.167Z,74.65
2019-01-16T21:19:53.402Z,74.79
2019-01-16T21:22:58.205Z,74.82
2019-01-16T21:25:40.628Z,74.86
2019-01-16T21:28:59.732Z,74.97
2019-01-16T21:31:40.774Z,74.81
2019-01-16T21:34:45.180Z,75.37
2019-01-16T21:37:32.467Z,75.25
2019-01-16T21:40:27.700Z,75.20
2019-01-16T21:43:22.015Z,75.13
2019-01-16T21:46:17.615Z,75.07
2019-01-16T21:48:59.474Z,75.20
2019-01-16T21:51:46.771Z,75.56
2019-01-16T21:54:44.718Z,75.30
2019-01-16T21:57:37.037Z,75.84
2019-01-16T22:00:27.836Z,76.05
2019-01-16T22:03:21.640Z,76.44
2019-01-16T22:06:08.492Z,76.29
2019-01-16T22:08:51.643Z,76.75
2019-01-16T22:11:52.862Z,76.93
2019-01-16T22:14:48.969Z,77.29
2019-01-16T22:17:40.467Z,77.36
2019-01-16T22:20:23.344Z,77.43
2019-01-16T22:23:12.392Z,77.77
2019-01-16T22:26:01.320Z,77.72
2019-01-16T22:28:42.881Z,78.40
2019-01-16T22:31:31.975Z,78.60
2019-01-16T22:34:26.689Z,78.77
2019-01-16T22:37:19.204Z,79.05
2019-01-16T22:40:06.809Z,79.16
2019-01-16T22:43:01.986Z,79.35
2019-01-16T22:45:50.728Z,79.56
2019-01-16T22:48:55.120Z,79.76
2019-01-16T22:51:47.047Z,80.00
2019-01-16T22:54:34.726Z,80.27
2019-01-16T22:57:23.255Z,80.61
2019-01-16T23:00:05.662Z,80.95
2019-01-16T23:02:54.151Z,81.26
2019-01-16T23:05:54.859Z,81.35
2019-01-16T23:08:49.528Z,81.50
2019-01-16T23:11:38.973Z,81.16
2019-01-16T23:14:23.295Z,81.25
2019-01-16T23:17:12.239Z,81.40
2019-01-16T23:20:19.203Z,81.31
2019-01-16T23:23:15.194Z,80.89
2019-01-16T23:26:04.026Z,81.19
2019-01-16T23:28:49.989Z,81.06
2019-01-16T23:31:32.474Z,79.50
2019-01-16T23:34:18.944Z,79.29
2019-01-16T23:37:19.759Z,78.78
2019-01-16T23:40:01.942Z,81.36
2019-01-16T23:42:56.596Z,82.01
2019-01-16T23:45:48.401Z,83.29
2019-01-16T23:48:40.794Z,84.67
2019-01-16T23:51:25.850Z,85.57
2019-01-16T23:54:15.614Z,85.87
2019-01-16T23:57:02.894Z,85.79
2019-01-16T23:59:52.127Z,85.86
